Saint Louis, Missouri
Current Conditions -  °F | °C
As of 2:53 AM on Friday 19 Dec 2014 (Local Time) from KCPS Reporting Station
Overcast Overcast  
Wind Chill: 34°   Ceiling: 3100
Heat Index: 34°   Visibility: 9mi
Dew Point: 28°   Wind: 3mph
Humidity: 79%   Direction: 30°NNE
Pressure: 30.3"   Gusts: NA
Location:  38.63°N, 90.24°W
Report Text: KCPS 190853Z AUTO 03003KT 9SM OVC031 01/M02 A3030 RMK AO2 SLP264 T00111022 53003 TSNO
Loading
Personal Weather Stations






























Interactive Weather Map New forecast layout! Learn more

10-Day Weather Forecast

Advertisements
Track Severe Weather on mobile